createdAt,value
2019-01-12T00:01:52.730Z,1.70
2019-01-12T00:07:28.790Z,2.10
2019-01-12T00:09:57.635Z,2.20
2019-01-12T00:12:38.423Z,2.30
2019-01-12T00:15:28.394Z,2.20
2019-01-12T00:21:07.414Z,2.20
2019-01-12T00:23:36.526Z,1.90
2019-01-12T00:26:09.159Z,2.20
2019-01-12T00:28:45.794Z,2.10
2019-01-12T00:31:22.472Z,2.10
2019-01-12T00:34:06.869Z,2.10
2019-01-12T00:36:33.780Z,2.30
2019-01-12T00:39:23.731Z,2.20
2019-01-12T00:45:14.392Z,2.30
2019-01-12T00:47:41.117Z,2.10
2019-01-12T00:50:10.942Z,2.20
2019-01-12T00:52:50.335Z,2.10
2019-01-12T00:55:26.003Z,2.10
2019-01-12T00:57:59.610Z,2.10
2019-01-12T01:00:50.751Z,2.00
2019-01-12T01:06:48.280Z,2.00
2019-01-12T01:09:15.103Z,1.80
2019-01-12T01:12:03.114Z,2.00
2019-01-12T01:15:02.018Z,2.00
2019-01-12T01:17:42.075Z,1.90
2019-01-12T01:20:38.578Z,2.00
2019-01-12T01:23:10.002Z,1.90
2019-01-12T01:26:16.692Z,1.80
2019-01-12T01:32:08.226Z,2.00
2019-01-12T01:34:37.257Z,2.00
2019-01-12T01:37:25.330Z,1.90
2019-01-12T01:40:11.477Z,2.00
2019-01-12T01:42:42.030Z,1.40
2019-01-12T01:45:33.254Z,1.80
2019-01-12T01:50:49.769Z,1.70
2019-01-12T01:53:23.648Z,1.80
2019-01-12T01:55:51.946Z,1.70
2019-01-12T01:58:27.731Z,1.80
2019-01-12T02:01:00.406Z,1.80
2019-01-12T02:03:31.823Z,1.80
2019-01-12T02:06:02.114Z,1.80
2019-01-12T02:08:42.367Z,1.80
2019-01-12T02:11:33.311Z,1.80
2019-01-12T02:13:59.948Z,1.80
2019-01-12T02:16:26.880Z,1.70
2019-01-12T02:19:05.394Z,1.70
2019-01-12T02:21:40.153Z,1.70
2019-01-12T02:24:10.879Z,1.80
2019-01-12T02:27:03.623Z,1.70
2019-01-12T02:29:38.472Z,1.80
2019-01-12T02:32:13.319Z,1.80
2019-01-12T02:34:42.672Z,1.70
2019-01-12T02:37:30.752Z,1.60
2019-01-12T02:40:17.639Z,1.60
2019-01-12T02:43:01.313Z,1.70
2019-01-12T02:45:39.064Z,1.60
2019-01-12T02:48:09.239Z,1.70
2019-01-12T02:50:36.101Z,1.70
2019-01-12T02:53:18.497Z,1.30
2019-01-12T02:55:57.672Z,1.60
2019-01-12T02:58:48.622Z,1.50
2019-01-12T03:01:15.355Z,1.50
2019-01-12T03:03:51.233Z,1.60
2019-01-12T03:06:53.582Z,1.60
2019-01-12T03:12:25.696Z,1.70
2019-01-12T03:15:11.840Z,1.60
2019-01-12T03:17:58.160Z,1.70
2019-01-12T03:20:36.357Z,1.40
2019-01-12T03:23:45.426Z,1.60
2019-01-12T03:26:09.379Z,1.60
2019-01-12T03:28:38.034Z,1.50
2019-01-12T03:31:09.788Z,1.50
2019-01-12T03:39:37.731Z,1.50
2019-01-12T03:42:04.730Z,1.50
2019-01-12T03:44:46.221Z,1.40
2019-01-12T03:47:36.983Z,1.50
2019-01-12T03:50:09.707Z,1.50
2019-01-12T03:55:46.765Z,1.40
2019-01-12T03:58:26.315Z,1.40
2019-01-12T04:01:02.177Z,1.40
2019-01-12T04:03:41.772Z,1.30
2019-01-12T04:06:24.320Z,1.20
2019-01-12T04:08:48.638Z,1.30
2019-01-12T04:11:29.073Z,0.90
2019-01-12T04:14:33.816Z,1.10
2019-01-12T04:16:55.330Z,1.30
2019-01-12T04:19:27.613Z,1.30
2019-01-12T04:21:55.941Z,1.10
2019-01-12T04:24:39.440Z,1.20
2019-01-12T04:27:09.373Z,1.20
2019-01-12T04:29:45.965Z,1.20
2019-01-12T04:32:17.276Z,1.20
2019-01-12T04:34:46.755Z,1.20
2019-01-12T04:37:20.500Z,1.20
2019-01-12T04:39:47.300Z,1.20
2019-01-12T04:42:16.649Z,1.10
2019-01-12T04:44:55.276Z,1.10
2019-01-12T04:47:36.088Z,1.10
2019-01-12T04:50:00.202Z,1.10
2019-01-12T04:52:27.012Z,1.20
2019-01-12T04:55:15.895Z,1.20
2019-01-12T04:57:44.452Z,1.20
2019-01-12T05:00:24.517Z,1.20
2019-01-12T05:02:57.441Z,1.10
2019-01-12T05:05:55.526Z,1.10
2019-01-12T05:08:24.403Z,1.10
2019-01-12T05:10:58.147Z,1.20
2019-01-12T05:13:24.969Z,1.10
2019-01-12T05:16:04.474Z,1.20
2019-01-12T05:18:33.762Z,1.10
2019-01-12T05:21:06.564Z,1.20
2019-01-12T05:23:37.560Z,1.20
2019-01-12T05:29:22.569Z,1.10
2019-01-12T05:37:48.180Z,1.20
2019-01-12T05:40:34.376Z,0.50
2019-01-12T05:43:28.849Z,1.00
2019-01-12T05:46:17.116Z,0.90
2019-01-12T05:48:56.518Z,0.60
2019-01-12T05:51:47.532Z,1.00
2019-01-12T05:54:25.302Z,1.10
2019-01-12T05:57:00.342Z,1.20
2019-01-12T05:59:40.223Z,1.20
2019-01-12T06:02:21.395Z,1.20
2019-01-12T06:04:52.618Z,1.20
2019-01-12T06:07:33.713Z,1.10
2019-01-12T06:10:07.345Z,1.00
2019-01-12T06:12:36.828Z,1.10
2019-01-12T06:15:19.354Z,1.10
2019-01-12T06:17:49.403Z,1.00
2019-01-12T06:23:22.011Z,0.90
2019-01-12T06:26:04.288Z,0.90
2019-01-12T06:28:33.178Z,0.90
2019-01-12T06:31:04.687Z,0.80
2019-01-12T06:36:54.317Z,0.80
2019-01-12T06:40:13.089Z,0.80
2019-01-12T06:42:40.906Z,0.90
2019-01-12T06:45:16.222Z,0.90
2019-01-12T06:47:45.937Z,0.90
2019-01-12T06:50:53.448Z,0.90
2019-01-12T06:53:25.903Z,0.80
2019-01-12T06:56:01.683Z,0.90
2019-01-12T06:58:45.261Z,0.90
2019-01-12T07:01:11.894Z,0.90
2019-01-12T07:03:41.333Z,0.90
2019-01-12T07:06:13.429Z,0.80
2019-01-12T07:08:46.411Z,0.90
2019-01-12T07:11:13.317Z,0.90
2019-01-12T07:13:41.899Z,0.80
2019-01-12T07:16:08.640Z,0.90
2019-01-12T07:18:39.255Z,0.80
2019-01-12T07:21:13.017Z,0.80
2019-01-12T07:23:42.255Z,0.80
2019-01-12T07:26:34.600Z,0.80
2019-01-12T07:29:17.266Z,0.70
2019-01-12T07:32:08.214Z,0.70
2019-01-12T07:34:44.017Z,0.80
2019-01-12T07:40:31.728Z,0.90
2019-01-12T07:43:12.449Z,0.80
2019-01-12T07:46:00.410Z,0.90
2019-01-12T07:48:45.086Z,0.80
2019-01-12T07:51:22.205Z,0.70
2019-01-12T07:54:07.432Z,0.70
2019-01-12T07:57:13.490Z,0.70
2019-01-12T07:59:42.103Z,0.50
2019-01-12T08:02:17.884Z,0.60
2019-01-12T08:04:50.735Z,0.60
2019-01-12T08:07:20.090Z,0.60
2019-01-12T08:09:48.674Z,0.60
2019-01-12T08:12:17.426Z,0.70
2019-01-12T08:14:44.127Z,0.60
2019-01-12T08:17:18.681Z,0.70
2019-01-12T08:19:45.423Z,0.60
2019-01-12T08:22:12.128Z,0.70
2019-01-12T08:24:46.186Z,0.70
2019-01-12T08:27:20.373Z,0.70
2019-01-12T08:29:49.948Z,0.60
2019-01-12T08:32:20.088Z,0.70
2019-01-12T08:34:54.027Z,0.60
2019-01-12T08:37:26.652Z,0.60
2019-01-12T08:40:02.718Z,0.70
2019-01-12T08:42:57.666Z,0.70
2019-01-12T08:45:37.723Z,0.70
2019-01-12T08:48:25.831Z,0.60
2019-01-12T08:56:54.177Z,0.70
2019-01-12T09:04:56.751Z,0.80
2019-01-12T09:07:23.737Z,0.70
2019-01-12T09:09:50.641Z,0.80
2019-01-12T09:13:03.216Z,0.80
2019-01-12T09:15:33.132Z,0.80
2019-01-12T09:18:26.304Z,0.80
2019-01-12T09:20:54.642Z,0.70
2019-01-12T09:23:29.572Z,0.80
2019-01-12T09:25:56.362Z,0.80
2019-01-12T09:28:27.730Z,0.90
2019-01-12T09:31:03.095Z,0.90
2019-01-12T09:33:29.743Z,1.00
2019-01-12T09:36:07.929Z,1.00
2019-01-12T09:38:34.652Z,1.20
2019-01-12T09:41:01.468Z,1.10
2019-01-12T09:43:30.523Z,1.20
2019-01-12T09:45:59.947Z,1.10
2019-01-12T09:48:54.296Z,1.20
2019-01-12T09:51:20.983Z,1.20
2019-01-12T09:53:50.234Z,1.30
2019-01-12T09:56:22.091Z,1.30
2019-01-12T09:59:08.240Z,1.30
2019-01-12T10:02:04.183Z,1.30
2019-01-12T10:04:34.558Z,1.30
2019-01-12T10:07:06.128Z,1.30
2019-01-12T10:09:44.031Z,1.30
2019-01-12T10:15:21.747Z,1.30
2019-01-12T10:18:09.746Z,1.30
2019-01-12T10:20:50.223Z,1.40
2019-01-12T10:23:28.151Z,1.30
2019-01-12T10:26:32.987Z,1.40
2019-01-12T10:29:09.816Z,1.40
2019-01-12T10:31:56.134Z,1.40
2019-01-12T10:38:02.574Z,1.40
2019-01-12T10:41:17.129Z,1.40
2019-01-12T10:44:05.194Z,1.30
2019-01-12T10:46:39.791Z,1.40
2019-01-12T10:49:14.381Z,1.50
2019-01-12T10:51:44.264Z,1.50
2019-01-12T10:54:25.537Z,1.40
2019-01-12T10:56:55.045Z,1.50
2019-01-12T10:59:26.968Z,1.60
2019-01-12T11:01:58.566Z,1.60
2019-01-12T11:04:45.248Z,1.60
2019-01-12T11:07:41.790Z,1.60
2019-01-12T11:10:11.234Z,1.50
2019-01-12T11:12:45.433Z,1.60
2019-01-12T11:15:17.876Z,1.60
2019-01-12T11:17:45.764Z,1.60
2019-01-12T11:20:37.136Z,1.70
2019-01-12T11:25:59.635Z,1.70
2019-01-12T11:28:26.477Z,1.70
2019-01-12T11:30:59.327Z,1.80
2019-01-12T11:33:29.943Z,1.90
2019-01-12T11:35:56.706Z,1.80
2019-01-12T11:38:28.647Z,1.90
2019-01-12T11:41:00.024Z,1.90
2019-01-12T11:43:32.580Z,1.80
2019-01-12T11:46:18.872Z,1.80
2019-01-12T11:49:15.735Z,1.90
2019-01-12T11:51:44.779Z,2.00
2019-01-12T11:54:11.693Z,1.90
2019-01-12T11:56:40.423Z,2.00
2019-01-12T11:59:07.326Z,1.90
2019-01-12T12:01:53.178Z,1.90
2019-01-12T12:04:54.607Z,1.90
2019-01-12T12:07:25.813Z,1.90
2019-01-12T12:10:11.188Z,1.90
2019-01-12T12:12:44.152Z,1.80
2019-01-12T12:15:32.327Z,1.80
2019-01-12T12:18:13.718Z,1.80
2019-01-12T12:20:43.503Z,1.80
2019-01-12T12:23:16.428Z,1.80
2019-01-12T12:25:58.766Z,1.90
2019-01-12T12:28:33.295Z,1.80
2019-01-12T12:31:00.170Z,1.80
2019-01-12T12:33:26.903Z,1.80
2019-01-12T12:35:55.537Z,1.70
2019-01-12T12:38:24.262Z,1.70
2019-01-12T12:40:55.348Z,1.70
2019-01-12T12:43:26.022Z,1.70
2019-01-12T12:45:54.675Z,1.70
2019-01-12T12:48:23.006Z,1.60
2019-01-12T12:50:53.381Z,1.60
2019-01-12T12:53:44.847Z,1.60
2019-01-12T12:56:31.262Z,1.70
2019-01-12T12:59:16.028Z,1.70
2019-01-12T13:01:50.420Z,1.20
2019-01-12T13:04:21.129Z,1.50
2019-01-12T13:07:07.549Z,1.60
2019-01-12T13:09:37.861Z,1.50
2019-01-12T13:12:23.061Z,1.70
2019-01-12T13:14:51.622Z,1.50
2019-01-12T13:20:53.418Z,1.60
2019-01-12T13:23:23.815Z,1.50
2019-01-12T13:25:50.511Z,1.20
2019-01-12T13:28:20.049Z,1.30
2019-01-12T13:30:49.116Z,1.40
2019-01-12T13:33:15.869Z,1.40
2019-01-12T13:35:44.567Z,1.30
2019-01-12T13:38:11.437Z,1.20
2019-01-12T13:40:47.457Z,1.30
2019-01-12T13:43:20.055Z,1.20
2019-01-12T13:45:53.627Z,1.30
2019-01-12T13:48:25.412Z,1.20
2019-01-12T13:51:05.006Z,1.20
2019-01-12T13:53:41.335Z,1.10
2019-01-12T13:56:25.184Z,1.10
2019-01-12T13:58:49.663Z,1.00
2019-01-12T14:01:22.798Z,1.00
2019-01-12T14:04:03.199Z,1.00
2019-01-12T14:06:30.306Z,1.00
2019-01-12T14:08:59.713Z,1.00
2019-01-12T14:11:45.836Z,0.90
2019-01-12T14:14:32.147Z,0.80
2019-01-12T14:19:01.330Z,0.80
2019-01-12T14:20:38.355Z,0.80
2019-01-12T14:26:34.606Z,0.40
2019-01-12T14:29:22.369Z,0.70
2019-01-12T14:32:30.457Z,0.80
2019-01-12T14:34:57.380Z,0.80
2019-01-12T14:40:41.930Z,0.70
2019-01-12T14:43:31.903Z,0.70
2019-01-12T14:46:18.124Z,0.60
2019-01-12T14:52:21.609Z,0.70
2019-01-12T14:54:53.698Z,0.50
2019-01-12T14:58:02.957Z,0.60
2019-01-12T15:00:34.717Z,0.70
2019-01-12T15:03:05.045Z,0.70
2019-01-12T15:05:51.582Z,0.60
2019-01-12T15:11:34.088Z,0.60
2019-01-12T15:14:29.332Z,0.50
2019-01-12T15:16:58.190Z,0.60
2019-01-12T15:19:27.050Z,0.60
2019-01-12T15:22:22.150Z,0.60
2019-01-12T15:25:05.569Z,0.70
2019-01-12T15:27:39.410Z,0.50
2019-01-12T15:30:35.711Z,0.50
2019-01-12T15:33:13.296Z,0.50
2019-01-12T15:35:51.283Z,0.50
2019-01-12T15:38:42.700Z,0.60
2019-01-12T15:41:32.823Z,0.30
2019-01-12T15:44:06.222Z,0.40
2019-01-12T15:46:37.263Z,0.40
2019-01-12T15:49:21.580Z,0.40
2019-01-12T15:52:13.335Z,0.40
2019-01-12T15:54:40.303Z,0.50
2019-01-12T15:57:06.931Z,0.40
2019-01-12T15:59:42.602Z,0.40
2019-01-12T16:07:30.335Z,0.60
2019-01-12T16:10:01.644Z,0.40
2019-01-12T16:12:29.443Z,0.40
2019-01-12T16:14:58.668Z,0.40
2019-01-12T16:17:31.704Z,0.30
2019-01-12T16:20:05.868Z,0.30
2019-01-12T16:23:13.604Z,0.40
2019-01-12T16:25:38.890Z,0.40
2019-01-12T16:28:11.082Z,0.40
2019-01-12T16:31:09.726Z,0.40
2019-01-12T16:33:55.890Z,0.40
2019-01-12T16:36:22.743Z,0.50
2019-01-12T16:39:01.456Z,0.60
2019-01-12T16:48:05.592Z,0.40
2019-01-12T16:51:03.564Z,0.40
2019-01-12T16:53:35.743Z,0.40
2019-01-12T16:56:02.391Z,0.50
2019-01-12T16:58:34.347Z,0.40
2019-01-12T17:04:16.439Z,0.40
2019-01-12T17:06:55.515Z,0.40
2019-01-12T17:09:41.662Z,0.40
2019-01-12T17:12:31.447Z,0.40
2019-01-12T17:15:08.174Z,-0.20
2019-01-12T17:18:03.636Z,0.40
2019-01-12T17:20:26.990Z,0.40
2019-01-12T17:23:00.430Z,0.50
2019-01-12T17:28:50.174Z,0.30
2019-01-12T17:31:17.066Z,0.30
2019-01-12T17:33:56.480Z,0.30
2019-01-12T17:36:27.895Z,0.30
2019-01-12T17:39:25.551Z,0.40
2019-01-12T17:41:48.468Z,0.40
2019-01-12T17:44:34.006Z,0.40
2019-01-12T17:47:07.527Z,0.40
2019-01-12T17:50:04.507Z,0.30
2019-01-12T17:52:50.861Z,0.30
2019-01-12T17:55:23.934Z,0.40
2019-01-12T18:01:11.502Z,0.30
2019-01-12T18:03:40.540Z,0.30
2019-01-12T18:06:31.764Z,0.30
2019-01-12T18:09:31.485Z,0.40
2019-01-12T18:12:13.749Z,0.30
2019-01-12T18:14:50.126Z,0.30
2019-01-12T18:20:33.918Z,0.10
2019-01-12T18:23:24.554Z,0.20
2019-01-12T18:26:12.868Z,0.10
2019-01-12T18:28:58.768Z,0.00
2019-01-12T18:36:40.933Z,0.40
2019-01-12T18:45:05.851Z,0.20
2019-01-12T18:51:18.025Z,0.10
2019-01-12T18:53:51.165Z,0.20
2019-01-12T18:56:49.930Z,-0.30
2019-01-12T18:59:48.856Z,0.20
2019-01-12T19:02:20.413Z,0.30
2019-01-12T19:04:58.013Z,0.30
2019-01-12T19:08:17.939Z,0.30
2019-01-12T19:10:42.986Z,0.30
2019-01-12T19:13:48.379Z,0.30
2019-01-12T19:19:55.759Z,0.30
2019-01-12T19:22:33.958Z,0.30
2019-01-12T19:25:00.704Z,0.20
2019-01-12T19:28:02.151Z,0.20
2019-01-12T19:30:55.399Z,0.20
2019-01-12T19:33:31.260Z,0.20
2019-01-12T19:36:06.904Z,0.20
2019-01-12T19:38:46.359Z,0.20
2019-01-12T19:41:15.281Z,0.20
2019-01-12T19:46:41.275Z,0.20
2019-01-12T19:49:08.044Z,0.20
2019-01-12T19:51:34.910Z,0.20
2019-01-12T19:54:42.774Z,0.10
2019-01-12T20:00:38.206Z,0.30
2019-01-12T20:03:24.132Z,0.30
2019-01-12T20:06:18.102Z,0.30
2019-01-12T20:11:55.044Z,0.20
2019-01-12T20:18:00.083Z,0.20
2019-01-12T20:20:26.866Z,0.30
2019-01-12T20:23:16.369Z,0.30
2019-01-12T20:25:47.391Z,0.20
2019-01-12T20:28:23.782Z,0.20
2019-01-12T20:34:23.708Z,0.20
2019-01-12T20:39:59.199Z,0.20
2019-01-12T20:43:13.526Z,-0.20
2019-01-12T20:49:05.043Z,-0.10
2019-01-12T20:52:34.115Z,0.00
2019-01-12T20:55:25.555Z,0.10
2019-01-12T20:58:50.534Z,0.20
2019-01-12T21:05:06.984Z,0.00
2019-01-12T21:07:57.341Z,-0.10
2019-01-12T21:10:45.434Z,-0.50
2019-01-12T21:13:48.362Z,0.00
2019-01-12T21:16:15.750Z,-0.10
2019-01-12T21:24:55.427Z,-0.10
2019-01-12T21:27:37.063Z,-0.10
2019-01-12T21:30:22.819Z,-0.10
2019-01-12T21:39:18.994Z,0.00
2019-01-12T21:42:15.005Z,-0.30
2019-01-12T21:44:46.693Z,-0.20
2019-01-12T21:47:13.380Z,-0.40
2019-01-12T21:49:40.088Z,-0.20
2019-01-12T22:04:10.255Z,-0.60
2019-01-12T22:06:36.918Z,-0.50
2019-01-12T22:09:06.795Z,-0.50
2019-01-12T22:11:33.553Z,-0.50
2019-01-12T22:14:23.447Z,-0.60
2019-01-12T22:16:59.934Z,-0.80
2019-01-12T22:29:17.562Z,-0.70
2019-01-12T22:32:16.794Z,-0.70
2019-01-12T22:36:18.313Z,-0.60
2019-01-12T22:37:55.232Z,-0.80
2019-01-12T22:43:43.704Z,-0.80
2019-01-12T22:46:40.882Z,-0.70
2019-01-12T22:49:20.308Z,-0.70
2019-01-12T22:52:19.322Z,-0.70
2019-01-12T22:55:22.414Z,-0.70
2019-01-12T23:01:02.441Z,-0.60
2019-01-12T23:03:52.272Z,-0.60
2019-01-12T23:16:06.264Z,-0.80
2019-01-12T23:18:33.075Z,-0.80
2019-01-12T23:23:49.657Z,-0.80
2019-01-12T23:26:16.333Z,-0.80
2019-01-12T23:28:42.993Z,-0.70
2019-01-12T23:31:32.564Z,-0.70
2019-01-12T23:34:02.866Z,-0.80
2019-01-12T23:36:45.423Z,-0.80
2019-01-12T23:39:21.335Z,-0.80
2019-01-12T23:45:45.077Z,-0.80
2019-01-12T23:48:37.708Z,-0.80
2019-01-12T23:51:17.744Z,-0.80
2019-01-12T23:53:44.834Z,-0.80
